sensor_id;sensor_type;location;lat;lon;timestamp;P1;durP1;ratioP1;P2;durP2;ratioP2
46222;SDS011;31943;51.410;7.564;2023-07-20T00:00:17;10.77;;;6.13;;
46222;SDS011;31943;51.410;7.564;2023-07-20T00:02:43;11.95;;;6.15;;
46222;SDS011;31943;51.410;7.564;2023-07-20T00:05:12;9.95;;;6.15;;
46222;SDS011;31943;51.410;7.564;2023-07-20T00:07:39;5.35;;;4.75;;
46222;SDS011;31943;51.410;7.564;2023-07-20T00:10:05;8.77;;;5.00;;
46222;SDS011;31943;51.410;7.564;2023-07-20T00:12:31;12.82;;;6.00;;
46222;SDS011;31943;51.410;7.564;2023-07-20T00:14:57;6.85;;;5.38;;
46222;SDS011;31943;51.410;7.564;2023-07-20T00:17:23;7.65;;;4.72;;
46222;SDS011;31943;51.410;7.564;2023-07-20T00:19:49;7.30;;;4.88;;
46222;SDS011;31943;51.410;7.564;2023-07-20T00:22:17;9.00;;;4.60;;
46222;SDS011;31943;51.410;7.564;2023-07-20T00:24:44;9.07;;;6.07;;
46222;SDS011;31943;51.410;7.564;2023-07-20T00:27:11;9.38;;;5.60;;
46222;SDS011;31943;51.410;7.564;2023-07-20T00:29:36;10.35;;;6.28;;
46222;SDS011;31943;51.410;7.564;2023-07-20T00:32:03;12.85;;;6.35;;
46222;SDS011;31943;51.410;7.564;2023-07-20T00:34:29;8.10;;;5.72;;
46222;SDS011;31943;51.410;7.564;2023-07-20T00:36:55;9.85;;;5.57;;
46222;SDS011;31943;51.410;7.564;2023-07-20T00:39:22;10.25;;;5.00;;
46222;SDS011;31943;51.410;7.564;2023-07-20T00:41:48;8.80;;;5.70;;
46222;SDS011;31943;51.410;7.564;2023-07-20T00:44:13;11.38;;;5.43;;
46222;SDS011;31943;51.410;7.564;2023-07-20T00:46:41;8.80;;;5.55;;
46222;SDS011;31943;51.410;7.564;2023-07-20T00:49:07;9.38;;;4.95;;
46222;SDS011;31943;51.410;7.564;2023-07-20T00:51:32;6.50;;;4.88;;
46222;SDS011;31943;51.410;7.564;2023-07-20T00:53:59;9.23;;;5.90;;
46222;SDS011;31943;51.410;7.564;2023-07-20T00:56:26;10.82;;;6.60;;
46222;SDS011;31943;51.410;7.564;2023-07-20T00:58:52;11.13;;;6.28;;
46222;SDS011;31943;51.410;7.564;2023-07-20T01:01:18;10.52;;;5.43;;
46222;SDS011;31943;51.410;7.564;2023-07-20T01:03:43;10.95;;;4.53;;
46222;SDS011;31943;51.410;7.564;2023-07-20T01:06:10;9.75;;;5.75;;
46222;SDS011;31943;51.410;7.564;2023-07-20T01:08:47;8.25;;;5.13;;
46222;SDS011;31943;51.410;7.564;2023-07-20T01:11:31;9.20;;;5.20;;
46222;SDS011;31943;51.410;7.564;2023-07-20T01:14:03;14.65;;;6.55;;
46222;SDS011;31943;51.410;7.564;2023-07-20T01:16:31;10.02;;;5.07;;
46222;SDS011;31943;51.410;7.564;2023-07-20T01:18:58;11.20;;;5.35;;
46222;SDS011;31943;51.410;7.564;2023-07-20T01:21:26;6.47;;;4.38;;
46222;SDS011;31943;51.410;7.564;2023-07-20T01:24:14;8.65;;;6.07;;
46222;SDS011;31943;51.410;7.564;2023-07-20T01:27:23;9.55;;;5.53;;
46222;SDS011;31943;51.410;7.564;2023-07-20T01:30:13;8.50;;;5.10;;
46222;SDS011;31943;51.410;7.564;2023-07-20T01:32:57;6.97;;;4.95;;
46222;SDS011;31943;51.410;7.564;2023-07-20T01:35:27;7.47;;;5.68;;
46222;SDS011;31943;51.410;7.564;2023-07-20T01:37:55;6.25;;;5.07;;
46222;SDS011;31943;51.410;7.564;2023-07-20T01:40:21;11.20;;;6.13;;
46222;SDS011;31943;51.410;7.564;2023-07-20T01:42:48;9.05;;;6.30;;
46222;SDS011;31943;51.410;7.564;2023-07-20T01:45:16;10.25;;;6.53;;
46222;SDS011;31943;51.410;7.564;2023-07-20T01:47:43;7.45;;;5.85;;
46222;SDS011;31943;51.410;7.564;2023-07-20T01:50:12;6.65;;;5.32;;
46222;SDS011;31943;51.410;7.564;2023-07-20T01:52:39;8.45;;;5.43;;
46222;SDS011;31943;51.410;7.564;2023-07-20T01:55:05;8.05;;;6.07;;
46222;SDS011;31943;51.410;7.564;2023-07-20T01:57:32;10.73;;;7.30;;
46222;SDS011;31943;51.410;7.564;2023-07-20T01:59:58;13.85;;;7.40;;
46222;SDS011;31943;51.410;7.564;2023-07-20T02:02:26;8.73;;;6.85;;
46222;SDS011;31943;51.410;7.564;2023-07-20T02:04:52;8.45;;;6.03;;
46222;SDS011;31943;51.410;7.564;2023-07-20T02:07:19;5.93;;;4.85;;
46222;SDS011;31943;51.410;7.564;2023-07-20T02:09:45;6.80;;;5.50;;
46222;SDS011;31943;51.410;7.564;2023-07-20T02:12:12;7.60;;;6.38;;
46222;SDS011;31943;51.410;7.564;2023-07-20T02:14:39;9.32;;;7.28;;
46222;SDS011;31943;51.410;7.564;2023-07-20T02:17:05;7.15;;;5.70;;
46222;SDS011;31943;51.410;7.564;2023-07-20T02:19:31;9.38;;;7.18;;
46222;SDS011;31943;51.410;7.564;2023-07-20T02:21:56;8.23;;;6.15;;
46222;SDS011;31943;51.410;7.564;2023-07-20T02:24:24;9.70;;;7.07;;
46222;SDS011;31943;51.410;7.564;2023-07-20T02:26:51;8.65;;;6.53;;
46222;SDS011;31943;51.410;7.564;2023-07-20T02:29:16;8.27;;;6.80;;
46222;SDS011;31943;51.410;7.564;2023-07-20T02:31:42;10.55;;;7.68;;
46222;SDS011;31943;51.410;7.564;2023-07-20T02:34:10;9.52;;;8.43;;
46222;SDS011;31943;51.410;7.564;2023-07-20T02:36:36;15.73;;;8.68;;
46222;SDS011;31943;51.410;7.564;2023-07-20T02:39:02;10.55;;;6.30;;
46222;SDS011;31943;51.410;7.564;2023-07-20T02:41:32;8.35;;;7.43;;
46222;SDS011;31943;51.410;7.564;2023-07-20T02:43:58;12.85;;;8.93;;
46222;SDS011;31943;51.410;7.564;2023-07-20T02:46:24;12.30;;;9.05;;
46222;SDS011;31943;51.410;7.564;2023-07-20T02:48:50;10.77;;;8.73;;
46222;SDS011;31943;51.410;7.564;2023-07-20T02:51:15;10.25;;;8.77;;
46222;SDS011;31943;51.410;7.564;2023-07-20T02:53:42;11.32;;;8.43;;
46222;SDS011;31943;51.410;7.564;2023-07-20T02:56:07;9.50;;;7.15;;
46222;SDS011;31943;51.410;7.564;2023-07-20T02:58:35;12.13;;;9.13;;
46222;SDS011;31943;51.410;7.564;2023-07-20T03:01:00;10.30;;;7.22;;
46222;SDS011;31943;51.410;7.564;2023-07-20T03:03:26;9.75;;;7.03;;
46222;SDS011;31943;51.410;7.564;2023-07-20T03:05:52;10.20;;;7.88;;
46222;SDS011;31943;51.410;7.564;2023-07-20T03:08:18;7.97;;;6.38;;
46222;SDS011;31943;51.410;7.564;2023-07-20T03:10:44;9.15;;;6.63;;
46222;SDS011;31943;51.410;7.564;2023-07-20T03:13:11;10.70;;;7.40;;
46222;SDS011;31943;51.410;7.564;2023-07-20T03:15:39;8.95;;;7.38;;
46222;SDS011;31943;51.410;7.564;2023-07-20T03:18:05;10.50;;;6.82;;
46222;SDS011;31943;51.410;7.564;2023-07-20T03:20:31;10.52;;;7.82;;
46222;SDS011;31943;51.410;7.564;2023-07-20T03:22:58;9.02;;;6.57;;
46222;SDS011;31943;51.410;7.564;2023-07-20T03:25:23;7.32;;;5.82;;
46222;SDS011;31943;51.410;7.564;2023-07-20T03:27:49;5.90;;;4.82;;
46222;SDS011;31943;51.410;7.564;2023-07-20T03:30:15;7.07;;;4.70;;
46222;SDS011;31943;51.410;7.564;2023-07-20T03:32:42;12.13;;;6.20;;
46222;SDS011;31943;51.410;7.564;2023-07-20T03:35:08;7.68;;;5.55;;
46222;SDS011;31943;51.410;7.564;2023-07-20T03:37:35;7.55;;;5.15;;
46222;SDS011;31943;51.410;7.564;2023-07-20T03:40:03;10.23;;;5.80;;
46222;SDS011;31943;51.410;7.564;2023-07-20T03:42:29;6.32;;;5.20;;
46222;SDS011;31943;51.410;7.564;2023-07-20T03:44:56;12.40;;;5.88;;
46222;SDS011;31943;51.410;7.564;2023-07-20T03:47:22;8.13;;;5.25;;
46222;SDS011;31943;51.410;7.564;2023-07-20T03:49:49;8.30;;;5.28;;
46222;SDS011;31943;51.410;7.564;2023-07-20T03:52:15;7.25;;;4.53;;
46222;SDS011;31943;51.410;7.564;2023-07-20T03:54:42;7.43;;;4.95;;
46222;SDS011;31943;51.410;7.564;2023-07-20T03:57:07;5.80;;;4.45;;
46222;SDS011;31943;51.410;7.564;2023-07-20T03:59:33;7.80;;;4.80;;
46222;SDS011;31943;51.410;7.564;2023-07-20T04:02:00;5.65;;;4.90;;
46222;SDS011;31943;51.410;7.564;2023-07-20T04:04:26;6.75;;;5.15;;
46222;SDS011;31943;51.410;7.564;2023-07-20T04:06:56;8.05;;;7.20;;
46222;SDS011;31943;51.410;7.564;2023-07-20T04:09:21;7.70;;;5.75;;
46222;SDS011;31943;51.410;7.564;2023-07-20T04:11:48;10.23;;;6.80;;
46222;SDS011;31943;51.410;7.564;2023-07-20T04:14:13;9.90;;;7.80;;
46222;SDS011;31943;51.410;7.564;2023-07-20T04:16:39;8.32;;;5.80;;
46222;SDS011;31943;51.410;7.564;2023-07-20T04:19:05;8.60;;;5.72;;
46222;SDS011;31943;51.410;7.564;2023-07-20T04:21:30;11.15;;;7.90;;
46222;SDS011;31943;51.410;7.564;2023-07-20T04:24:00;11.07;;;7.97;;
46222;SDS011;31943;51.410;7.564;2023-07-20T04:26:27;8.45;;;7.60;;
46222;SDS011;31943;51.410;7.564;2023-07-20T04:28:52;8.48;;;7.53;;
46222;SDS011;31943;51.410;7.564;2023-07-20T04:31:18;8.13;;;7.22;;
46222;SDS011;31943;51.410;7.564;2023-07-20T04:33:44;11.18;;;9.05;;
46222;SDS011;31943;51.410;7.564;2023-07-20T04:36:10;9.30;;;7.47;;
46222;SDS011;31943;51.410;7.564;2023-07-20T04:38:36;8.85;;;7.82;;
46222;SDS011;31943;51.410;7.564;2023-07-20T04:41:03;10.52;;;8.90;;
46222;SDS011;31943;51.410;7.564;2023-07-20T04:43:29;11.20;;;7.82;;
46222;SDS011;31943;51.410;7.564;2023-07-20T04:45:55;11.07;;;9.65;;
46222;SDS011;31943;51.410;7.564;2023-07-20T04:48:22;11.40;;;9.77;;
46222;SDS011;31943;51.410;7.564;2023-07-20T04:50:47;11.02;;;9.93;;
46222;SDS011;31943;51.410;7.564;2023-07-20T04:53:14;12.43;;;11.23;;
46222;SDS011;31943;51.410;7.564;2023-07-20T04:55:46;14.40;;;12.82;;
46222;SDS011;31943;51.410;7.564;2023-07-20T04:58:17;12.95;;;10.25;;
46222;SDS011;31943;51.410;7.564;2023-07-20T05:00:44;15.02;;;13.63;;
46222;SDS011;31943;51.410;7.564;2023-07-20T05:03:10;17.83;;;15.32;;
46222;SDS011;31943;51.410;7.564;2023-07-20T05:05:36;20.02;;;17.75;;
46222;SDS011;31943;51.410;7.564;2023-07-20T05:08:03;18.58;;;16.67;;
46222;SDS011;31943;51.410;7.564;2023-07-20T05:10:30;17.83;;;15.15;;
46222;SDS011;31943;51.410;7.564;2023-07-20T05:12:56;19.05;;;17.15;;
46222;SDS011;31943;51.410;7.564;2023-07-20T05:15:24;19.90;;;18.00;;
46222;SDS011;31943;51.410;7.564;2023-07-20T05:17:49;18.40;;;16.60;;
46222;SDS011;31943;51.410;7.564;2023-07-20T05:20:15;21.50;;;19.33;;
46222;SDS011;31943;51.410;7.564;2023-07-20T05:22:43;21.15;;;19.08;;
46222;SDS011;31943;51.410;7.564;2023-07-20T05:25:09;22.15;;;20.02;;
46222;SDS011;31943;51.410;7.564;2023-07-20T05:27:36;20.50;;;18.50;;
46222;SDS011;31943;51.410;7.564;2023-07-20T05:30:03;20.85;;;18.73;;
46222;SDS011;31943;51.410;7.564;2023-07-20T05:32:32;19.95;;;18.08;;
46222;SDS011;31943;51.410;7.564;2023-07-20T05:34:58;18.35;;;16.70;;
46222;SDS011;31943;51.410;7.564;2023-07-20T05:37:26;20.05;;;17.90;;
46222;SDS011;31943;51.410;7.564;2023-07-20T05:39:51;20.05;;;17.95;;
46222;SDS011;31943;51.410;7.564;2023-07-20T05:42:17;18.23;;;16.48;;
46222;SDS011;31943;51.410;7.564;2023-07-20T05:44:43;19.00;;;17.20;;
46222;SDS011;31943;51.410;7.564;2023-07-20T05:47:08;18.00;;;16.33;;
46222;SDS011;31943;51.410;7.564;2023-07-20T05:49:37;18.35;;;16.50;;
46222;SDS011;31943;51.410;7.564;2023-07-20T05:52:03;19.60;;;17.38;;
46222;SDS011;31943;51.410;7.564;2023-07-20T05:54:30;18.48;;;16.67;;
46222;SDS011;31943;51.410;7.564;2023-07-20T05:56:57;19.50;;;17.67;;
46222;SDS011;31943;51.410;7.564;2023-07-20T05:59:24;18.45;;;16.65;;
46222;SDS011;31943;51.410;7.564;2023-07-20T06:01:53;18.05;;;16.35;;
46222;SDS011;31943;51.410;7.564;2023-07-20T06:04:20;11.15;;;10.02;;
46222;SDS011;31943;51.410;7.564;2023-07-20T06:06:47;11.07;;;10.07;;
46222;SDS011;31943;51.410;7.564;2023-07-20T06:09:13;11.98;;;10.77;;
46222;SDS011;31943;51.410;7.564;2023-07-20T06:11:39;10.18;;;9.15;;
46222;SDS011;31943;51.410;7.564;2023-07-20T06:14:04;9.95;;;8.95;;
46222;SDS011;31943;51.410;7.564;2023-07-20T06:16:31;9.63;;;7.20;;
46222;SDS011;31943;51.410;7.564;2023-07-20T06:19:00;9.07;;;8.02;;
46222;SDS011;31943;51.410;7.564;2023-07-20T06:21:26;7.57;;;6.78;;
46222;SDS011;31943;51.410;7.564;2023-07-20T06:23:54;6.82;;;6.10;;
46222;SDS011;31943;51.410;7.564;2023-07-20T06:26:20;6.07;;;5.47;;
46222;SDS011;31943;51.410;7.564;2023-07-20T06:28:45;6.20;;;5.60;;
46222;SDS011;31943;51.410;7.564;2023-07-20T06:31:11;6.32;;;5.65;;
46222;SDS011;31943;51.410;7.564;2023-07-20T06:33:39;6.65;;;5.47;;
46222;SDS011;31943;51.410;7.564;2023-07-20T06:36:05;8.07;;;6.60;;
46222;SDS011;31943;51.410;7.564;2023-07-20T06:38:31;6.53;;;4.63;;
46222;SDS011;31943;51.410;7.564;2023-07-20T06:40:58;6.47;;;5.00;;
46222;SDS011;31943;51.410;7.564;2023-07-20T06:43:24;5.75;;;5.15;;
46222;SDS011;31943;51.410;7.564;2023-07-20T06:45:53;5.65;;;5.10;;
46222;SDS011;31943;51.410;7.564;2023-07-20T06:48:19;8.27;;;5.30;;
46222;SDS011;31943;51.410;7.564;2023-07-20T06:50:46;5.95;;;5.45;;
46222;SDS011;31943;51.410;7.564;2023-07-20T06:53:12;5.55;;;5.05;;
46222;SDS011;31943;51.410;7.564;2023-07-20T06:55:38;5.80;;;5.30;;
46222;SDS011;31943;51.410;7.564;2023-07-20T06:58:05;6.40;;;5.80;;
46222;SDS011;31943;51.410;7.564;2023-07-20T07:00:31;5.97;;;5.47;;
46222;SDS011;31943;51.410;7.564;2023-07-20T07:02:57;5.65;;;5.18;;
46222;SDS011;31943;51.410;7.564;2023-07-20T07:05:23;5.38;;;4.88;;
46222;SDS011;31943;51.410;7.564;2023-07-20T07:07:49;5.18;;;4.70;;
46222;SDS011;31943;51.410;7.564;2023-07-20T07:10:16;4.55;;;4.15;;
46222;SDS011;31943;51.410;7.564;2023-07-20T07:12:41;3.92;;;3.13;;
46222;SDS011;31943;51.410;7.564;2023-07-20T07:15:09;4.35;;;3.35;;
46222;SDS011;31943;51.410;7.564;2023-07-20T07:17:35;4.32;;;3.63;;
46222;SDS011;31943;51.410;7.564;2023-07-20T07:20:01;3.33;;;2.75;;
46222;SDS011;31943;51.410;7.564;2023-07-20T07:22:27;3.17;;;2.83;;
46222;SDS011;31943;51.410;7.564;2023-07-20T07:24:52;3.35;;;3.05;;
46222;SDS011;31943;51.410;7.564;2023-07-20T07:27:19;4.22;;;3.92;;
46222;SDS011;31943;51.410;7.564;2023-07-20T07:29:46;4.38;;;4.07;;
46222;SDS011;31943;51.410;7.564;2023-07-20T07:32:13;4.40;;;4.00;;
46222;SDS011;31943;51.410;7.564;2023-07-20T07:34:41;3.88;;;3.47;;
46222;SDS011;31943;51.410;7.564;2023-07-20T07:37:07;3.90;;;3.60;;
46222;SDS011;31943;51.410;7.564;2023-07-20T07:39:33;4.20;;;3.90;;
46222;SDS011;31943;51.410;7.564;2023-07-20T07:41:58;4.18;;;3.80;;
46222;SDS011;31943;51.410;7.564;2023-07-20T07:44:25;4.25;;;3.90;;
46222;SDS011;31943;51.410;7.564;2023-07-20T07:46:51;3.50;;;3.17;;
46222;SDS011;31943;51.410;7.564;2023-07-20T07:49:20;4.28;;;3.97;;
46222;SDS011;31943;51.410;7.564;2023-07-20T07:51:45;2.63;;;2.42;;
46222;SDS011;31943;51.410;7.564;2023-07-20T07:54:13;2.13;;;1.98;;
46222;SDS011;31943;51.410;7.564;2023-07-20T07:56:40;2.50;;;2.25;;
46222;SDS011;31943;51.410;7.564;2023-07-20T07:59:06;1.73;;;1.63;;
46222;SDS011;31943;51.410;7.564;2023-07-20T08:01:32;1.60;;;1.50;;
46222;SDS011;31943;51.410;7.564;2023-07-20T08:03:58;1.92;;;1.55;;
46222;SDS011;31943;51.410;7.564;2023-07-20T08:06:25;2.00;;;1.40;;
46222;SDS011;31943;51.410;7.564;2023-07-20T08:08:51;1.70;;;1.60;;
46222;SDS011;31943;51.410;7.564;2023-07-20T08:11:17;1.80;;;1.60;;
46222;SDS011;31943;51.410;7.564;2023-07-20T08:13:43;2.63;;;1.73;;
46222;SDS011;31943;51.410;7.564;2023-07-20T08:16:10;1.70;;;1.60;;
46222;SDS011;31943;51.410;7.564;2023-07-20T08:18:36;1.63;;;1.52;;
46222;SDS011;31943;51.410;7.564;2023-07-20T08:21:01;2.67;;;2.08;;
46222;SDS011;31943;51.410;7.564;2023-07-20T08:23:31;2.20;;;2.00;;
46222;SDS011;31943;51.410;7.564;2023-07-20T08:25:57;2.28;;;2.08;;
46222;SDS011;31943;51.410;7.564;2023-07-20T08:28:22;3.97;;;3.63;;
46222;SDS011;31943;51.410;7.564;2023-07-20T08:30:48;4.30;;;3.60;;
46222;SDS011;31943;51.410;7.564;2023-07-20T08:33:16;4.82;;;3.30;;
46222;SDS011;31943;51.410;7.564;2023-07-20T08:35:43;3.60;;;3.30;;
46222;SDS011;31943;51.410;7.564;2023-07-20T08:38:09;2.15;;;1.50;;
46222;SDS011;31943;51.410;7.564;2023-07-20T08:40:40;1.75;;;1.17;;
46222;SDS011;31943;51.410;7.564;2023-07-20T08:43:07;2.38;;;0.77;;
46222;SDS011;31943;51.410;7.564;2023-07-20T08:45:33;0.90;;;0.60;;
46222;SDS011;31943;51.410;7.564;2023-07-20T08:48:02;1.13;;;0.60;;
46222;SDS011;31943;51.410;7.564;2023-07-20T08:50:30;0.98;;;0.65;;
46222;SDS011;31943;51.410;7.564;2023-07-20T08:52:57;0.90;;;0.68;;
46222;SDS011;31943;51.410;7.564;2023-07-20T08:55:24;2.63;;;0.90;;
46222;SDS011;31943;51.410;7.564;2023-07-20T08:57:53;1.02;;;0.60;;
46222;SDS011;31943;51.410;7.564;2023-07-20T09:00:20;0.70;;;0.60;;
46222;SDS011;31943;51.410;7.564;2023-07-20T09:02:47;1.85;;;0.80;;
46222;SDS011;31943;51.410;7.564;2023-07-20T09:05:15;2.03;;;1.27;;
46222;SDS011;31943;51.410;7.564;2023-07-20T09:07:41;3.78;;;1.10;;
46222;SDS011;31943;51.410;7.564;2023-07-20T09:10:08;1.75;;;1.50;;
46222;SDS011;31943;51.410;7.564;2023-07-20T09:12:34;3.22;;;1.63;;
46222;SDS011;31943;51.410;7.564;2023-07-20T09:15:02;1.67;;;1.00;;
46222;SDS011;31943;51.410;7.564;2023-07-20T09:17:28;2.83;;;1.30;;
46222;SDS011;31943;51.410;7.564;2023-07-20T09:19:54;3.53;;;1.40;;
46222;SDS011;31943;51.410;7.564;2023-07-20T09:22:20;1.55;;;1.02;;
46222;SDS011;31943;51.410;7.564;2023-07-20T09:24:46;1.35;;;0.98;;
46222;SDS011;31943;51.410;7.564;2023-07-20T09:27:12;6.03;;;1.50;;
46222;SDS011;31943;51.410;7.564;2023-07-20T09:29:47;3.28;;;1.30;;
46222;SDS011;31943;51.410;7.564;2023-07-20T09:32:17;1.85;;;1.00;;
46222;SDS011;31943;51.410;7.564;2023-07-20T09:34:44;1.20;;;0.50;;
46222;SDS011;31943;51.410;7.564;2023-07-20T09:37:10;1.25;;;0.73;;
46222;SDS011;31943;51.410;7.564;2023-07-20T09:39:41;0.75;;;0.68;;
46222;SDS011;31943;51.410;7.564;2023-07-20T09:42:08;1.08;;;0.68;;
46222;SDS011;31943;51.410;7.564;2023-07-20T09:44:34;1.40;;;0.63;;
46222;SDS011;31943;51.410;7.564;2023-07-20T09:46:59;1.20;;;0.63;;
46222;SDS011;31943;51.410;7.564;2023-07-20T09:49:30;1.90;;;0.77;;
46222;SDS011;31943;51.410;7.564;2023-07-20T09:51:56;0.70;;;0.60;;
46222;SDS011;31943;51.410;7.564;2023-07-20T09:54:23;0.80;;;0.63;;
46222;SDS011;31943;51.410;7.564;2023-07-20T09:56:51;1.20;;;0.80;;
46222;SDS011;31943;51.410;7.564;2023-07-20T09:59:18;1.48;;;0.70;;
46222;SDS011;31943;51.410;7.564;2023-07-20T10:01:44;1.45;;;0.60;;
46222;SDS011;31943;51.410;7.564;2023-07-20T10:04:12;1.20;;;0.50;;
46222;SDS011;31943;51.410;7.564;2023-07-20T10:06:42;0.57;;;0.40;;
46222;SDS011;31943;51.410;7.564;2023-07-20T10:09:10;1.25;;;0.40;;
46222;SDS011;31943;51.410;7.564;2023-07-20T10:11:40;1.15;;;0.47;;
46222;SDS011;31943;51.410;7.564;2023-07-20T10:14:09;1.48;;;0.60;;
46222;SDS011;31943;51.410;7.564;2023-07-20T10:16:43;1.07;;;0.40;;
46222;SDS011;31943;51.410;7.564;2023-07-20T10:19:17;0.77;;;0.47;;
46222;SDS011;31943;51.410;7.564;2023-07-20T10:21:51;0.50;;;0.40;;
46222;SDS011;31943;51.410;7.564;2023-07-20T10:24:22;0.50;;;0.40;;
46222;SDS011;31943;51.410;7.564;2023-07-20T10:26:49;1.02;;;0.43;;
46222;SDS011;31943;51.410;7.564;2023-07-20T10:29:15;0.57;;;0.30;;
46222;SDS011;31943;51.410;7.564;2023-07-20T10:31:41;0.95;;;0.50;;
46222;SDS011;31943;51.410;7.564;2023-07-20T10:34:08;0.75;;;0.50;;
46222;SDS011;31943;51.410;7.564;2023-07-20T10:36:34;1.33;;;0.40;;
46222;SDS011;31943;51.410;7.564;2023-07-20T10:39:11;1.45;;;0.75;;
46222;SDS011;31943;51.410;7.564;2023-07-20T10:41:47;1.35;;;0.32;;
46222;SDS011;31943;51.410;7.564;2023-07-20T10:44:14;0.68;;;0.50;;
46222;SDS011;31943;51.410;7.564;2023-07-20T10:46:45;0.93;;;0.50;;
46222;SDS011;31943;51.410;7.564;2023-07-20T10:49:11;2.05;;;0.50;;
46222;SDS011;31943;51.410;7.564;2023-07-20T10:51:39;0.50;;;0.40;;
46222;SDS011;31943;51.410;7.564;2023-07-20T10:54:07;2.03;;;0.40;;
46222;SDS011;31943;51.410;7.564;2023-07-20T10:56:36;0.93;;;0.40;;
46222;SDS011;31943;51.410;7.564;2023-07-20T10:59:02;0.45;;;0.30;;
46222;SDS011;31943;51.410;7.564;2023-07-20T11:01:43;0.73;;;0.52;;
46222;SDS011;31943;51.410;7.564;2023-07-20T11:04:10;2.00;;;0.50;;
46222;SDS011;31943;51.410;7.564;2023-07-20T11:06:36;1.15;;;0.47;;
46222;SDS011;31943;51.410;7.564;2023-07-20T11:09:08;0.73;;;0.40;;
46222;SDS011;31943;51.410;7.564;2023-07-20T11:11:37;0.80;;;0.35;;
46222;SDS011;31943;51.410;7.564;2023-07-20T11:14:04;0.52;;;0.30;;
46222;SDS011;31943;51.410;7.564;2023-07-20T11:16:34;0.95;;;0.40;;
46222;SDS011;31943;51.410;7.564;2023-07-20T11:19:04;0.47;;;0.40;;
46222;SDS011;31943;51.410;7.564;2023-07-20T11:21:35;1.52;;;0.60;;
46222;SDS011;31943;51.410;7.564;2023-07-20T11:24:02;0.50;;;0.40;;
46222;SDS011;31943;51.410;7.564;2023-07-20T11:26:30;0.80;;;0.60;;
46222;SDS011;31943;51.410;7.564;2023-07-20T11:28:58;2.05;;;0.50;;
46222;SDS011;31943;51.410;7.564;2023-07-20T11:31:23;1.15;;;0.60;;
46222;SDS011;31943;51.410;7.564;2023-07-20T11:33:49;1.85;;;0.77;;
46222;SDS011;31943;51.410;7.564;2023-07-20T11:36:14;0.70;;;0.50;;
46222;SDS011;31943;51.410;7.564;2023-07-20T11:38:43;0.75;;;0.57;;
46222;SDS011;31943;51.410;7.564;2023-07-20T11:41:11;2.53;;;0.63;;
46222;SDS011;31943;51.410;7.564;2023-07-20T11:43:39;1.15;;;0.70;;
46222;SDS011;31943;51.410;7.564;2023-07-20T11:46:07;0.95;;;0.60;;
46222;SDS011;31943;51.410;7.564;2023-07-20T11:48:34;1.25;;;0.60;;
46222;SDS011;31943;51.410;7.564;2023-07-20T11:51:00;1.48;;;0.60;;
46222;SDS011;31943;51.410;7.564;2023-07-20T11:53:27;1.08;;;0.70;;
46222;SDS011;31943;51.410;7.564;2023-07-20T11:55:54;1.13;;;0.85;;
46222;SDS011;31943;51.410;7.564;2023-07-20T11:58:19;0.60;;;0.55;;
46222;SDS011;31943;51.410;7.564;2023-07-20T12:00:45;0.95;;;0.80;;
46222;SDS011;31943;51.410;7.564;2023-07-20T12:03:12;1.58;;;0.70;;
46222;SDS011;31943;51.410;7.564;2023-07-20T12:05:38;1.95;;;0.80;;
46222;SDS011;31943;51.410;7.564;2023-07-20T12:08:04;1.40;;;0.60;;
46222;SDS011;31943;51.410;7.564;2023-07-20T12:10:30;1.42;;;0.60;;
46222;SDS011;31943;51.410;7.564;2023-07-20T12:13:01;0.95;;;0.60;;
46222;SDS011;31943;51.410;7.564;2023-07-20T12:15:27;1.48;;;0.88;;
46222;SDS011;31943;51.410;7.564;2023-07-20T12:17:53;0.60;;;0.60;;
46222;SDS011;31943;51.410;7.564;2023-07-20T12:20:26;2.05;;;0.90;;
46222;SDS011;31943;51.410;7.564;2023-07-20T12:22:55;0.75;;;0.55;;
46222;SDS011;31943;51.410;7.564;2023-07-20T12:25:32;1.02;;;0.80;;
46222;SDS011;31943;51.410;7.564;2023-07-20T12:28:09;1.08;;;0.80;;
46222;SDS011;31943;51.410;7.564;2023-07-20T12:30:36;0.80;;;0.70;;
46222;SDS011;31943;51.410;7.564;2023-07-20T12:33:02;1.27;;;0.70;;
46222;SDS011;31943;51.410;7.564;2023-07-20T12:35:30;2.08;;;0.90;;
46222;SDS011;31943;51.410;7.564;2023-07-20T12:37:57;1.42;;;0.90;;
46222;SDS011;31943;51.410;7.564;2023-07-20T12:40:22;0.77;;;0.75;;
46222;SDS011;31943;51.410;7.564;2023-07-20T12:42:49;1.10;;;0.85;;
46222;SDS011;31943;51.410;7.564;2023-07-20T12:45:16;1.25;;;0.90;;
46222;SDS011;31943;51.410;7.564;2023-07-20T12:47:43;1.00;;;0.80;;
46222;SDS011;31943;51.410;7.564;2023-07-20T12:50:09;1.08;;;0.98;;
46222;SDS011;31943;51.410;7.564;2023-07-20T12:52:37;3.00;;;1.10;;
46222;SDS011;31943;51.410;7.564;2023-07-20T12:55:04;0.70;;;0.70;;
46222;SDS011;31943;51.410;7.564;2023-07-20T12:57:30;0.98;;;0.88;;
46222;SDS011;31943;51.410;7.564;2023-07-20T12:59:58;3.42;;;0.85;;
46222;SDS011;31943;51.410;7.564;2023-07-20T13:02:23;0.70;;;0.70;;
46222;SDS011;31943;51.410;7.564;2023-07-20T13:04:50;2.60;;;0.93;;
46222;SDS011;31943;51.410;7.564;2023-07-20T13:07:16;1.52;;;0.90;;
46222;SDS011;31943;51.410;7.564;2023-07-20T13:09:55;0.95;;;0.90;;
46222;SDS011;31943;51.410;7.564;2023-07-20T13:12:22;1.50;;;0.90;;
46222;SDS011;31943;51.410;7.564;2023-07-20T13:14:48;2.08;;;0.80;;
46222;SDS011;31943;51.410;7.564;2023-07-20T13:17:13;2.60;;;0.80;;
46222;SDS011;31943;51.410;7.564;2023-07-20T13:19:39;1.67;;;0.98;;
46222;SDS011;31943;51.410;7.564;2023-07-20T13:22:05;1.77;;;0.80;;
46222;SDS011;31943;51.410;7.564;2023-07-20T13:24:31;0.82;;;0.82;;
46222;SDS011;31943;51.410;7.564;2023-07-20T13:26:58;2.10;;;0.90;;
46222;SDS011;31943;51.410;7.564;2023-07-20T13:29:24;1.58;;;0.80;;
46222;SDS011;31943;51.410;7.564;2023-07-20T13:31:50;1.55;;;0.80;;
46222;SDS011;31943;51.410;7.564;2023-07-20T13:34:16;2.53;;;0.80;;
46222;SDS011;31943;51.410;7.564;2023-07-20T13:36:42;1.45;;;0.77;;
46222;SDS011;31943;51.410;7.564;2023-07-20T13:39:08;1.25;;;0.80;;
46222;SDS011;31943;51.410;7.564;2023-07-20T13:41:33;1.25;;;0.70;;
46222;SDS011;31943;51.410;7.564;2023-07-20T13:44:01;1.45;;;0.80;;
46222;SDS011;31943;51.410;7.564;2023-07-20T13:46:26;0.95;;;0.60;;
46222;SDS011;31943;51.410;7.564;2023-07-20T13:48:52;3.00;;;0.90;;
46222;SDS011;31943;51.410;7.564;2023-07-20T13:51:17;1.13;;;0.70;;
46222;SDS011;31943;51.410;7.564;2023-07-20T13:53:45;2.35;;;0.70;;
46222;SDS011;31943;51.410;7.564;2023-07-20T13:56:11;0.88;;;0.68;;
46222;SDS011;31943;51.410;7.564;2023-07-20T13:58:37;0.75;;;0.65;;
46222;SDS011;31943;51.410;7.564;2023-07-20T14:01:04;2.67;;;0.85;;
46222;SDS011;31943;51.410;7.564;2023-07-20T14:03:30;1.55;;;0.85;;
46222;SDS011;31943;51.410;7.564;2023-07-20T14:05:56;1.00;;;0.60;;
46222;SDS011;31943;51.410;7.564;2023-07-20T14:08:21;1.95;;;0.70;;
46222;SDS011;31943;51.410;7.564;2023-07-20T14:10:47;1.02;;;0.70;;
46222;SDS011;31943;51.410;7.564;2023-07-20T14:13:13;1.35;;;0.57;;
46222;SDS011;31943;51.410;7.564;2023-07-20T14:15:39;1.25;;;0.63;;
46222;SDS011;31943;51.410;7.564;2023-07-20T14:18:07;1.52;;;0.70;;
46222;SDS011;31943;51.410;7.564;2023-07-20T14:20:33;1.35;;;0.70;;
46222;SDS011;31943;51.410;7.564;2023-07-20T14:22:58;0.75;;;0.50;;
46222;SDS011;31943;51.410;7.564;2023-07-20T14:25:24;0.82;;;0.70;;
46222;SDS011;31943;51.410;7.564;2023-07-20T14:27:49;2.88;;;0.80;;
46222;SDS011;31943;51.410;7.564;2023-07-20T14:30:15;0.95;;;0.60;;
46222;SDS011;31943;51.410;7.564;2023-07-20T14:32:41;1.38;;;0.70;;
46222;SDS011;31943;51.410;7.564;2023-07-20T14:35:09;1.80;;;0.85;;
46222;SDS011;31943;51.410;7.564;2023-07-20T14:37:34;0.80;;;0.60;;
46222;SDS011;31943;51.410;7.564;2023-07-20T14:40:00;1.60;;;0.80;;
46222;SDS011;31943;51.410;7.564;2023-07-20T14:42:26;1.63;;;0.73;;